createdAt,value
2022-08-09T00:01:10.658Z,13.59
2022-08-09T00:04:05.874Z,13.61
2022-08-09T00:06:28.916Z,13.59
2022-08-09T00:08:58.828Z,13.58
2022-08-09T00:11:58.500Z,13.59
2022-08-09T00:14:21.833Z,13.57
2022-08-09T00:16:54.888Z,13.57
2022-08-09T00:19:21.635Z,13.56
2022-08-09T00:21:55.809Z,13.55
2022-08-09T00:24:24.407Z,13.55
2022-08-09T00:26:51.343Z,13.53
2022-08-09T00:29:39.174Z,13.53
2022-08-09T00:32:06.079Z,13.49
2022-08-09T00:34:33.642Z,13.48
2022-08-09T00:37:00.674Z,13.48
2022-08-09T00:40:14.048Z,13.47
2022-08-09T00:44:11.266Z,13.42
2022-08-09T00:45:03.587Z,13.41
2022-08-09T00:47:44.107Z,13.36
2022-08-09T00:50:14.852Z,13.32
2022-08-09T00:52:41.883Z,13.25
2022-08-09T00:55:10.375Z,13.19
2022-08-09T00:57:59.404Z,13.17
2022-08-09T01:00:26.817Z,13.14
2022-08-09T01:03:21.739Z,13.12
2022-08-09T01:06:18.027Z,13.11
2022-08-09T01:09:06.174Z,13.12
2022-08-09T01:11:56.153Z,13.10
2022-08-09T01:14:26.888Z,13.06
2022-08-09T01:17:02.465Z,12.98
2022-08-09T01:20:01.937Z,12.93
2022-08-09T01:22:51.250Z,12.93
2022-08-09T01:25:53.198Z,12.90
2022-08-09T01:28:22.671Z,12.87
2022-08-09T01:30:55.885Z,12.86
2022-08-09T01:33:29.840Z,12.82
2022-08-09T01:36:20.367Z,12.78
2022-08-09T01:38:50.687Z,12.79
2022-08-09T01:41:26.022Z,12.77
2022-08-09T01:43:56.198Z,12.74
2022-08-09T01:46:31.640Z,12.72
2022-08-09T01:49:10.427Z,12.62
2022-08-09T01:51:53.527Z,12.57
2022-08-09T01:54:30.210Z,12.51
2022-08-09T01:57:03.980Z,12.50
2022-08-09T01:59:32.698Z,12.49
2022-08-09T02:02:10.663Z,12.48
2022-08-09T02:04:45.414Z,12.44
2022-08-09T02:08:34.692Z,12.46
2022-08-09T02:10:29.875Z,12.44
2022-08-09T02:13:05.277Z,12.44
2022-08-09T02:15:48.675Z,12.40
2022-08-09T02:18:21.960Z,12.36
2022-08-09T02:20:55.407Z,12.36
2022-08-09T02:23:39.938Z,12.33
2022-08-09T02:26:26.804Z,12.32
2022-08-09T02:28:57.635Z,12.31
2022-08-09T02:31:35.588Z,12.32
2022-08-09T02:34:25.735Z,12.32
2022-08-09T02:37:14.891Z,12.28
2022-08-09T02:39:55.097Z,12.26
2022-08-09T02:42:35.123Z,12.24
2022-08-09T02:45:07.836Z,12.20
2022-08-09T02:47:57.654Z,12.10
2022-08-09T02:50:27.044Z,11.99
2022-08-09T02:52:59.931Z,12.01
2022-08-09T02:55:46.710Z,12.05
2022-08-09T02:58:35.679Z,12.07
2022-08-09T03:01:08.225Z,12.05
2022-08-09T03:04:17.448Z,12.06
2022-08-09T03:06:27.931Z,12.07
2022-08-09T03:08:57.436Z,12.06
2022-08-09T03:11:29.703Z,12.04
2022-08-09T03:14:16.029Z,12.02
2022-08-09T03:16:45.236Z,11.97
2022-08-09T03:19:52.229Z,11.93
2022-08-09T03:22:04.648Z,11.91
2022-08-09T03:24:42.846Z,11.88
2022-08-09T03:27:21.713Z,11.88
2022-08-09T03:30:01.084Z,11.87
2022-08-09T03:32:31.379Z,11.85
2022-08-09T03:34:59.452Z,11.85
2022-08-09T03:37:55.393Z,11.86
2022-08-09T03:40:13.993Z,11.80
2022-08-09T03:42:45.619Z,11.79
2022-08-09T03:45:13.546Z,11.77
2022-08-09T03:47:46.655Z,11.77
2022-08-09T03:50:18.596Z,11.71
2022-08-09T03:52:56.320Z,11.72
2022-08-09T03:55:24.768Z,11.72
2022-08-09T03:58:03.286Z,11.72
2022-08-09T04:00:38.575Z,11.75
2022-08-09T04:03:07.027Z,11.73
2022-08-09T04:05:33.689Z,11.75
2022-08-09T04:08:07.276Z,11.71
2022-08-09T04:10:35.640Z,11.70
2022-08-09T04:13:11.351Z,11.69
2022-08-09T04:16:19.844Z,11.68
2022-08-09T04:18:26.016Z,11.67
2022-08-09T04:20:55.086Z,11.66
2022-08-09T04:23:24.937Z,11.70
2022-08-09T04:25:54.579Z,11.69
2022-08-09T04:28:33.672Z,11.65
2022-08-09T04:31:08.333Z,11.67
2022-08-09T04:33:52.182Z,11.67
2022-08-09T04:36:24.998Z,11.69
2022-08-09T04:38:52.741Z,11.68
2022-08-09T04:41:19.957Z,11.72
2022-08-09T04:44:05.782Z,11.70
2022-08-09T04:46:37.899Z,11.65
2022-08-09T04:49:30.170Z,11.65
2022-08-09T04:52:09.691Z,11.69
2022-08-09T04:54:36.890Z,11.68
2022-08-09T04:57:04.138Z,11.72
2022-08-09T04:59:31.872Z,11.66
2022-08-09T05:02:02.893Z,11.69
2022-08-09T05:04:31.601Z,11.67
2022-08-09T05:06:58.762Z,11.65
2022-08-09T05:09:42.060Z,11.67
2022-08-09T05:12:12.687Z,11.66
2022-08-09T05:14:41.135Z,11.73
2022-08-09T05:18:37.416Z,11.75
2022-08-09T05:19:56.859Z,11.76
2022-08-09T05:22:33.587Z,11.79
2022-08-09T05:25:12.314Z,12.11
2022-08-09T05:27:46.655Z,12.65
2022-08-09T05:30:16.053Z,13.20
2022-08-09T05:32:51.137Z,13.57
2022-08-09T05:35:21.799Z,13.91
2022-08-09T05:37:50.292Z,14.12
2022-08-09T05:40:18.252Z,14.37
2022-08-09T05:42:46.074Z,14.68
2022-08-09T05:45:14.224Z,15.03
2022-08-09T05:47:52.534Z,15.27
2022-08-09T05:50:39.762Z,15.46
2022-08-09T05:53:31.748Z,15.66
2022-08-09T05:56:01.692Z,15.96
2022-08-09T05:58:28.578Z,16.26
2022-08-09T06:00:55.304Z,16.43
2022-08-09T06:03:22.049Z,16.61
2022-08-09T06:05:58.029Z,16.84
2022-08-09T06:08:31.689Z,17.03
2022-08-09T06:10:59.230Z,17.32
2022-08-09T06:13:33.978Z,17.47
2022-08-09T06:16:04.868Z,17.55
2022-08-09T06:18:32.496Z,17.68
2022-08-09T06:21:00.930Z,18.01
2022-08-09T06:23:57.843Z,18.17
2022-08-09T06:26:20.969Z,18.22
2022-08-09T06:29:01.168Z,18.26
2022-08-09T06:31:39.938Z,18.55
2022-08-09T06:34:20.377Z,18.92
2022-08-09T06:36:49.675Z,19.32
2022-08-09T06:39:24.316Z,19.88
2022-08-09T06:42:11.387Z,20.02
2022-08-09T06:44:38.358Z,20.26
2022-08-09T06:47:05.443Z,20.60
2022-08-09T06:50:11.403Z,20.76
2022-08-09T06:52:23.520Z,20.96
2022-08-09T06:54:51.975Z,21.03
2022-08-09T06:57:20.919Z,21.32
2022-08-09T07:00:51.798Z,21.56
2022-08-09T07:02:55.352Z,21.71
2022-08-09T07:05:24.645Z,21.84
2022-08-09T07:08:11.368Z,21.89
2022-08-09T07:10:38.567Z,21.96
2022-08-09T07:13:27.633Z,21.88
2022-08-09T07:16:38.506Z,22.16
2022-08-09T07:18:39.606Z,22.41
2022-08-09T07:21:08.102Z,22.67
2022-08-09T07:23:36.120Z,22.47
2022-08-09T07:26:04.336Z,21.83
2022-08-09T07:28:34.919Z,21.93
2022-08-09T07:31:04.953Z,22.20
2022-08-09T07:33:52.574Z,22.23
2022-08-09T07:36:22.077Z,22.08
2022-08-09T07:38:58.251Z,22.12
2022-08-09T07:41:27.764Z,21.81
2022-08-09T07:44:00.187Z,21.47
2022-08-09T07:46:27.876Z,21.63
2022-08-09T07:48:59.434Z,21.99
2022-08-09T07:52:04.466Z,22.36
2022-08-09T07:54:15.548Z,22.34
2022-08-09T07:56:49.129Z,22.15
2022-08-09T07:59:33.676Z,22.26
2022-08-09T08:02:05.461Z,22.67
2022-08-09T08:04:33.199Z,22.44
2022-08-09T08:07:27.194Z,22.37
2022-08-09T08:10:04.714Z,22.57
2022-08-09T08:12:43.587Z,22.96
2022-08-09T08:15:17.633Z,22.83
2022-08-09T08:17:54.579Z,23.27
2022-08-09T08:20:29.490Z,23.29
2022-08-09T08:23:03.772Z,23.15
2022-08-09T08:25:44.406Z,23.47
2022-08-09T08:28:14.956Z,23.75
2022-08-09T08:30:47.555Z,23.28
2022-08-09T08:33:23.697Z,23.54
2022-08-09T08:35:59.875Z,24.16
2022-08-09T08:38:29.626Z,23.89
2022-08-09T08:40:57.683Z,23.47
2022-08-09T08:43:27.140Z,23.37
2022-08-09T08:46:31.814Z,23.58
2022-08-09T08:48:51.978Z,23.71
2022-08-09T08:51:22.831Z,23.62
2022-08-09T08:54:04.243Z,23.74
2022-08-09T08:56:39.737Z,24.10
2022-08-09T08:59:19.785Z,23.91
2022-08-09T09:01:56.921Z,24.18
2022-08-09T09:04:41.177Z,24.04
2022-08-09T09:07:15.521Z,23.98
2022-08-09T09:10:01.835Z,24.07
2022-08-09T09:12:34.261Z,24.17
2022-08-09T09:15:02.413Z,23.94
2022-08-09T09:17:30.862Z,23.95
2022-08-09T09:20:16.530Z,23.95
2022-08-09T09:22:55.799Z,24.11
2022-08-09T09:26:03.773Z,24.23
2022-08-09T09:28:39.234Z,24.51
2022-08-09T09:32:05.887Z,24.79
2022-08-09T09:34:15.279Z,24.77
2022-08-09T09:36:53.328Z,24.92
2022-08-09T09:39:42.750Z,24.88
2022-08-09T09:42:24.674Z,25.03
2022-08-09T09:45:05.938Z,24.84
2022-08-09T09:47:37.997Z,25.26
2022-08-09T09:50:17.248Z,25.15
2022-08-09T09:52:56.776Z,25.02
2022-08-09T09:55:27.953Z,24.68
2022-08-09T09:58:18.633Z,24.61
2022-08-09T10:00:53.808Z,25.01
2022-08-09T10:03:39.916Z,25.02
2022-08-09T10:06:06.987Z,25.04
2022-08-09T10:08:43.149Z,25.17
2022-08-09T10:11:59.804Z,25.20
2022-08-09T10:14:30.665Z,25.12
2022-08-09T10:17:23.893Z,24.79
2022-08-09T10:19:47.324Z,24.89
2022-08-09T10:22:32.664Z,25.22
2022-08-09T10:25:07.055Z,25.57
2022-08-09T10:27:56.277Z,25.42
2022-08-09T10:33:29.484Z,25.60
2022-08-09T10:36:00.840Z,25.28
2022-08-09T10:38:54.700Z,25.54
2022-08-09T10:41:18.670Z,25.53
2022-08-09T10:43:58.781Z,25.34
2022-08-09T10:47:04.085Z,25.72
2022-08-09T10:49:57.439Z,25.47
2022-08-09T10:52:53.229Z,25.35
2022-08-09T10:55:24.360Z,25.75
2022-08-09T10:57:55.699Z,25.76
2022-08-09T11:00:29.927Z,25.72
2022-08-09T11:03:27.583Z,25.47
2022-08-09T11:06:15.920Z,25.74
2022-08-09T11:08:51.178Z,25.79
2022-08-09T11:11:20.624Z,25.93
2022-08-09T11:13:50.500Z,25.94
2022-08-09T11:16:38.670Z,26.19
2022-08-09T11:19:07.833Z,26.10
2022-08-09T11:22:05.263Z,26.05
2022-08-09T11:25:04.750Z,25.99
2022-08-09T11:28:05.326Z,26.22
2022-08-09T11:30:33.556Z,26.31
2022-08-09T11:33:04.028Z,26.04
2022-08-09T11:35:50.233Z,26.00
2022-08-09T11:38:32.449Z,25.77
2022-08-09T11:41:13.642Z,26.01
2022-08-09T11:43:52.829Z,26.09
2022-08-09T11:46:32.723Z,25.93
2022-08-09T11:48:59.817Z,25.86
2022-08-09T11:53:00.668Z,25.51
2022-08-09T11:54:27.970Z,25.59
2022-08-09T11:57:47.898Z,25.66
2022-08-09T12:00:27.430Z,25.82
2022-08-09T12:02:55.622Z,25.95
2022-08-09T12:05:23.336Z,25.94
2022-08-09T12:07:50.417Z,25.85
2022-08-09T12:10:39.502Z,25.84
2022-08-09T12:14:10.013Z,26.13
2022-08-09T12:16:03.227Z,25.92
2022-08-09T12:18:33.675Z,25.99
2022-08-09T12:21:02.603Z,25.99
2022-08-09T12:23:56.395Z,26.01
2022-08-09T12:26:19.543Z,25.94
2022-08-09T12:29:15.549Z,25.86
2022-08-09T12:32:02.292Z,25.71
2022-08-09T12:34:33.470Z,25.76
2022-08-09T12:37:21.711Z,25.81
2022-08-09T12:40:05.669Z,25.95
2022-08-09T12:42:33.690Z,26.05
2022-08-09T12:45:01.093Z,25.87
2022-08-09T12:47:37.093Z,25.69
2022-08-09T12:50:23.520Z,25.79
2022-08-09T12:53:09.161Z,25.66
2022-08-09T12:56:15.187Z,25.59
2022-08-09T12:58:28.343Z,25.54
2022-08-09T13:00:56.662Z,25.49
2022-08-09T13:03:58.962Z,25.50
2022-08-09T13:06:45.478Z,25.52
2022-08-09T13:09:30.705Z,25.42
2022-08-09T13:12:05.248Z,25.36
2022-08-09T13:14:42.182Z,25.34
2022-08-09T13:17:16.371Z,25.30
2022-08-09T13:20:14.123Z,25.18
2022-08-09T13:23:06.072Z,25.01
2022-08-09T13:25:52.900Z,24.88
2022-08-09T13:28:34.518Z,24.90
2022-08-09T13:32:16.712Z,24.92
2022-08-09T13:33:55.134Z,24.93
2022-08-09T13:36:37.412Z,24.88
2022-08-09T13:41:17.395Z,25.04
2022-08-09T13:42:04.705Z,24.88
2022-08-09T13:44:32.374Z,24.75
2022-08-09T13:47:19.391Z,24.76
2022-08-09T13:49:57.265Z,24.64
2022-08-09T13:52:27.950Z,24.53
2022-08-09T13:54:59.435Z,24.62
2022-08-09T13:57:36.441Z,24.67
2022-08-09T14:00:10.544Z,24.62
2022-08-09T14:02:42.899Z,24.57
2022-08-09T14:05:56.576Z,24.41
2022-08-09T14:08:13.423Z,24.32
2022-08-09T14:10:49.379Z,24.22
2022-08-09T14:13:28.126Z,24.01
2022-08-09T14:16:10.132Z,23.89
2022-08-09T14:18:38.903Z,23.79
2022-08-09T14:21:11.238Z,23.74
2022-08-09T14:23:40.299Z,23.62
2022-08-09T14:26:21.824Z,23.57
2022-08-09T14:28:51.962Z,23.53
2022-08-09T14:31:18.732Z,23.50
2022-08-09T14:33:52.091Z,23.41
2022-08-09T14:36:21.587Z,23.41
2022-08-09T14:38:52.566Z,23.46
2022-08-09T14:41:23.909Z,23.44
2022-08-09T14:43:53.992Z,23.43
2022-08-09T14:46:54.495Z,23.28
2022-08-09T14:49:10.594Z,23.14
2022-08-09T14:51:42.242Z,22.97
2022-08-09T14:54:09.654Z,22.88
2022-08-09T14:56:53.912Z,22.93
2022-08-09T14:59:23.653Z,22.84
2022-08-09T15:01:50.564Z,22.84
2022-08-09T15:04:17.257Z,22.80
2022-08-09T15:06:49.677Z,22.87
2022-08-09T15:10:03.841Z,22.95
2022-08-09T15:12:04.908Z,22.71
2022-08-09T15:14:35.328Z,22.60
2022-08-09T15:17:08.942Z,22.59
2022-08-09T15:19:37.045Z,22.47
2022-08-09T15:22:25.875Z,22.94
2022-08-09T15:24:53.622Z,22.89
2022-08-09T15:27:21.207Z,22.82
2022-08-09T15:30:58.762Z,22.85
2022-08-09T15:32:35.599Z,22.65
2022-08-09T15:35:18.396Z,22.65
2022-08-09T15:37:56.943Z,22.63
2022-08-09T15:40:37.379Z,22.66
2022-08-09T15:43:13.763Z,22.66
2022-08-09T15:46:07.873Z,22.62
2022-08-09T15:48:30.620Z,22.68
2022-08-09T15:51:00.100Z,22.78
2022-08-09T15:54:03.960Z,22.89
2022-08-09T15:56:29.260Z,22.66
2022-08-09T15:58:58.248Z,22.46
2022-08-09T16:01:25.220Z,22.34
2022-08-09T16:03:52.428Z,22.34
2022-08-09T16:06:35.373Z,22.43
2022-08-09T16:09:05.664Z,22.54
2022-08-09T16:11:33.136Z,22.61
2022-08-09T16:14:03.717Z,22.55
2022-08-09T16:16:34.673Z,22.40
2022-08-09T16:19:04.746Z,22.27
2022-08-09T16:21:34.905Z,22.20
2022-08-09T16:24:04.819Z,22.20
2022-08-09T16:26:34.872Z,22.31
2022-08-09T16:29:11.749Z,22.17
2022-08-09T16:32:19.875Z,22.13
2022-08-09T16:34:55.494Z,22.19
2022-08-09T16:37:20.373Z,22.18
2022-08-09T16:40:08.659Z,22.07
2022-08-09T16:42:36.162Z,21.98
2022-08-09T16:45:05.207Z,21.91
2022-08-09T16:48:40.918Z,21.87
2022-08-09T16:50:33.051Z,22.08
2022-08-09T16:53:01.691Z,22.02
2022-08-09T16:55:31.383Z,21.96
2022-08-09T16:58:16.946Z,21.96
2022-08-09T17:00:46.332Z,21.93
2022-08-09T17:03:21.493Z,21.94
2022-08-09T17:06:08.686Z,21.93
2022-08-09T17:08:43.078Z,22.12
2022-08-09T17:11:15.212Z,22.10
2022-08-09T17:13:45.291Z,21.92
2022-08-09T17:16:12.063Z,21.78
2022-08-09T17:18:39.120Z,21.69
2022-08-09T17:21:05.885Z,21.66
2022-08-09T17:24:20.181Z,21.44
2022-08-09T17:26:31.648Z,21.28
2022-08-09T17:29:05.245Z,21.46
2022-08-09T17:31:38.975Z,21.37
2022-08-09T17:35:00.802Z,21.20
2022-08-09T17:36:54.108Z,21.02
2022-08-09T17:39:25.075Z,20.89
2022-08-09T17:41:52.046Z,20.80
2022-08-09T17:44:38.642Z,20.68
2022-08-09T17:47:10.439Z,20.66
2022-08-09T17:49:54.248Z,20.67
2022-08-09T17:52:24.739Z,20.67
2022-08-09T17:54:54.650Z,20.78
2022-08-09T17:58:03.086Z,20.52
2022-08-09T18:00:11.131Z,20.41
2022-08-09T18:02:38.473Z,20.31
2022-08-09T18:05:08.410Z,20.29
2022-08-09T18:07:39.881Z,20.17
2022-08-09T18:10:15.247Z,20.18
2022-08-09T18:13:39.644Z,20.05
2022-08-09T18:16:05.247Z,19.93
2022-08-09T18:18:25.406Z,19.84
2022-08-09T18:21:10.401Z,19.79
2022-08-09T18:24:10.773Z,19.69
2022-08-09T18:26:26.422Z,19.57
2022-08-09T18:30:42.121Z,19.50
2022-08-09T18:31:51.485Z,19.47
2022-08-09T18:34:24.410Z,19.37
2022-08-09T18:36:53.185Z,19.30
2022-08-09T18:39:22.442Z,19.19
2022-08-09T18:41:53.312Z,19.08
2022-08-09T18:44:22.930Z,19.03
2022-08-09T18:47:04.832Z,19.01
2022-08-09T18:49:43.227Z,18.87
2022-08-09T18:52:13.951Z,18.74
2022-08-09T18:54:49.559Z,18.62
2022-08-09T18:57:22.347Z,18.61
2022-08-09T18:59:55.107Z,18.66
2022-08-09T19:02:31.792Z,18.57
2022-08-09T19:05:14.748Z,18.52
2022-08-09T19:08:03.902Z,18.41
2022-08-09T19:10:37.309Z,18.34
2022-08-09T19:13:20.272Z,18.22
2022-08-09T19:15:52.389Z,18.14
2022-08-09T19:18:33.265Z,18.00
2022-08-09T19:21:05.550Z,17.95
2022-08-09T19:24:36.017Z,17.91
2022-08-09T19:26:31.069Z,17.83
2022-08-09T19:29:09.514Z,17.76
2022-08-09T19:31:45.943Z,17.68
2022-08-09T19:34:21.621Z,17.59
2022-08-09T19:36:50.543Z,17.56
2022-08-09T19:39:17.360Z,17.54
2022-08-09T19:41:48.706Z,17.42
2022-08-09T19:44:20.721Z,17.38
2022-08-09T19:46:50.955Z,17.28
2022-08-09T19:50:09.151Z,17.27
2022-08-09T19:52:10.177Z,17.24
2022-08-09T19:54:39.968Z,17.19
2022-08-09T19:57:08.511Z,17.11
2022-08-09T19:59:57.983Z,17.07
2022-08-09T20:04:07.196Z,17.04
2022-08-09T20:05:14.980Z,16.97
2022-08-09T20:07:57.024Z,16.93
2022-08-09T20:10:34.718Z,16.84
2022-08-09T20:13:05.010Z,16.76
2022-08-09T20:16:38.602Z,16.75
2022-08-09T20:18:19.757Z,16.63
2022-08-09T20:20:47.009Z,16.61
2022-08-09T20:23:13.741Z,16.59
2022-08-09T20:25:52.027Z,16.58
2022-08-09T20:28:31.989Z,16.50
2022-08-09T20:31:05.711Z,16.44
2022-08-09T20:33:41.030Z,16.35
2022-08-09T20:36:11.650Z,16.35
2022-08-09T20:39:18.745Z,16.36
2022-08-09T20:41:34.721Z,16.34
2022-08-09T20:44:02.546Z,16.30
2022-08-09T20:46:42.202Z,16.32
2022-08-09T20:49:10.458Z,16.32
2022-08-09T20:51:41.088Z,16.28
2022-08-09T20:54:12.515Z,16.20
2022-08-09T20:56:47.093Z,16.10
2022-08-09T20:59:16.657Z,16.10
2022-08-09T21:01:51.018Z,16.05
2022-08-09T21:05:55.075Z,15.99
2022-08-09T21:07:11.635Z,15.94
2022-08-09T21:09:55.466Z,15.88
2022-08-09T21:15:12.921Z,15.83
2022-08-09T21:18:11.221Z,15.81
2022-08-09T21:20:26.891Z,15.74
2022-08-09T21:22:58.136Z,15.73
2022-08-09T21:25:55.872Z,15.66
2022-08-09T21:28:36.025Z,15.54
2022-08-09T21:31:17.290Z,15.49
2022-08-09T21:33:52.132Z,15.47
2022-08-09T21:36:28.223Z,15.47
2022-08-09T21:38:57.195Z,15.46
2022-08-09T21:42:03.974Z,15.41
2022-08-09T21:44:32.725Z,15.33
2022-08-09T21:47:03.836Z,15.33
2022-08-09T21:49:40.247Z,15.31
2022-08-09T21:52:16.459Z,15.26
2022-08-09T21:54:46.323Z,15.23
2022-08-09T21:57:36.784Z,15.16
2022-08-09T22:00:11.476Z,15.12
2022-08-09T22:02:40.256Z,15.10
2022-08-09T22:05:22.279Z,14.99
2022-08-09T22:07:53.001Z,14.93
2022-08-09T22:10:23.227Z,14.91
2022-08-09T22:12:52.045Z,14.85
2022-08-09T22:15:20.664Z,14.84
2022-08-09T22:17:50.359Z,14.81
2022-08-09T22:20:27.225Z,14.78
2022-08-09T22:22:54.489Z,14.77
2022-08-09T22:26:05.577Z,14.73
2022-08-09T22:28:07.925Z,14.72
2022-08-09T22:30:34.795Z,14.65
2022-08-09T22:33:03.723Z,14.63
2022-08-09T22:36:00.026Z,14.59
2022-08-09T22:38:23.557Z,14.57
2022-08-09T22:40:57.916Z,14.51
2022-08-09T22:44:03.263Z,14.52
2022-08-09T22:48:14.136Z,14.49
2022-08-09T22:49:09.724Z,14.50
2022-08-09T22:51:39.305Z,14.47
2022-08-09T22:54:08.001Z,14.46
2022-08-09T22:56:37.690Z,14.43
2022-08-09T22:59:57.165Z,14.44
2022-08-09T23:01:56.005Z,14.42
2022-08-09T23:04:23.086Z,14.41
2022-08-09T23:07:11.188Z,14.39
2022-08-09T23:09:38.457Z,14.35
2022-08-09T23:12:07.407Z,14.39
2022-08-09T23:14:37.503Z,14.36
2022-08-09T23:17:10.004Z,14.36
2022-08-09T23:20:06.859Z,14.36
2022-08-09T23:22:23.817Z,14.32
2022-08-09T23:24:50.541Z,14.25
2022-08-09T23:27:17.318Z,14.22
2022-08-09T23:29:44.018Z,14.17
2022-08-09T23:32:11.004Z,14.11
2022-08-09T23:34:38.035Z,14.03
2022-08-09T23:37:05.148Z,13.95
2022-08-09T23:39:32.292Z,13.94
2022-08-09T23:41:59.428Z,13.86
2022-08-09T23:44:26.244Z,13.82
2022-08-09T23:46:57.456Z,13.78
2022-08-09T23:49:25.893Z,13.80
2022-08-09T23:51:53.419Z,13.84
2022-08-09T23:54:21.138Z,13.80
2022-08-09T23:56:56.164Z,13.76
2022-08-09T23:59:25.349Z,13.75
